Time;durP1;ratioP1;P1;durP2;ratioP2;P2;SDS_P1;SDS_P2;PMS_P1;PMS_P2;Temp;Humidity;BMP_temperature;BMP_pressure;BME280_temperature;BME280_humidity;BME280_pressure;Samples;Min_cycle;Max_cycle;Signal;HPM_P1;HPM_P2
2023/09/30 00:02:27;;;;;;;15.38;2.92;;;13.50;99.90;;;;;;5034366;28;20053;-51
2023/09/30 00:04:54;;;;;;;10.00;2.75;;;13.50;99.90;;;;;;5033639;28;20441;-51
2023/09/30 00:07:21;;;;;;;13.25;2.95;;;13.40;99.90;;;;;;5034008;28;20072;-49
2023/09/30 00:09:48;;;;;;;10.85;3.00;;;13.40;99.90;;;;;;5034418;28;20048;-54
2023/09/30 00:12:15;;;;;;;10.38;2.75;;;13.40;99.90;;;;;;5034095;28;20037;-51
2023/09/30 00:14:42;;;;;;;11.73;2.40;;;13.40;99.90;;;;;;5033224;28;20052;-52
2023/09/30 00:17:08;;;;;;;11.40;2.97;;;13.40;99.90;;;;;;5034308;28;20064;-50
2023/09/30 00:19:35;;;;;;;15.57;2.72;;;13.40;99.90;;;;;;5034320;28;20496;-52
2023/09/30 00:22:02;;;;;;;14.90;3.17;;;13.40;99.90;;;;;;5034072;28;20108;-53
2023/09/30 00:24:28;;;;;;;11.85;3.55;;;13.40;99.90;;;;;;5033817;28;20052;-49
2023/09/30 00:26:56;;;;;;;9.07;3.00;;;13.40;99.90;;;;;;5033964;28;20052;-51
2023/09/30 00:29:23;;;;;;;13.45;2.45;;;13.40;99.90;;;;;;5034508;28;20484;-50
2023/09/30 00:31:50;;;;;;;11.77;2.38;;;13.40;99.90;;;;;;5032569;28;20136;-51
2023/09/30 00:34:16;;;;;;;16.13;2.95;;;13.40;99.90;;;;;;5034122;28;20045;-50
2023/09/30 00:36:43;;;;;;;13.77;2.40;;;13.40;99.90;;;;;;5033344;28;20128;-54
2023/09/30 00:39:11;;;;;;;9.85;2.38;;;13.40;99.90;;;;;;5032654;28;20096;-55
2023/09/30 00:41:38;;;;;;;11.38;2.45;;;13.40;99.90;;;;;;5034043;28;20481;-49
2023/09/30 00:44:07;;;;;;;13.80;3.17;;;13.40;99.90;;;;;;5032680;28;20068;-52
2023/09/30 00:46:34;;;;;;;9.63;2.63;;;13.40;99.90;;;;;;5032396;28;20042;-55
2023/09/30 00:49:01;;;;;;;14.90;3.05;;;13.40;99.90;;;;;;5032510;28;20092;-54
2023/09/30 00:51:28;;;;;;;13.70;2.95;;;13.40;99.90;;;;;;5033074;28;20049;-53
2023/09/30 00:53:55;;;;;;;13.55;2.55;;;13.40;99.90;;;;;;5032172;28;20044;-50
2023/09/30 00:56:22;;;;;;;8.95;2.40;;;13.40;99.90;;;;;;5033713;28;20593;-52
2023/09/30 00:58:51;;;;;;;12.90;2.95;;;13.50;99.90;;;;;;5033520;28;20038;-50
2023/09/30 01:01:18;;;;;;;15.18;3.22;;;13.40;99.90;;;;;;5033841;28;20366;-52
2023/09/30 01:03:45;;;;;;;14.05;3.30;;;13.40;99.90;;;;;;5033452;28;20483;-50
2023/09/30 01:06:12;;;;;;;11.75;2.65;;;13.50;99.90;;;;;;5033567;28;20483;-52
2023/09/30 01:08:38;;;;;;;11.30;2.38;;;13.50;99.90;;;;;;5033127;28;20128;-52
2023/09/30 01:11:05;;;;;;;12.90;2.33;;;13.50;99.90;;;;;;5033525;28;20042;-55
2023/09/30 01:13:32;;;;;;;11.73;2.40;;;13.50;99.90;;;;;;5032738;28;20041;-54
2023/09/30 01:15:59;;;;;;;16.15;3.00;;;13.50;99.90;;;;;;5033252;28;20119;-56
2023/09/30 01:18:26;;;;;;;10.63;2.60;;;13.40;99.90;;;;;;5031769;28;20104;-51
2023/09/30 01:20:53;;;;;;;13.85;2.63;;;13.40;99.90;;;;;;5031487;28;20088;-56
2023/09/30 01:23:19;;;;;;;15.90;3.05;;;13.40;99.90;;;;;;5032909;28;20037;-53
2023/09/30 01:25:46;;;;;;;12.93;2.90;;;13.50;99.90;;;;;;5033589;28;20132;-54
2023/09/30 01:28:14;;;;;;;13.68;3.10;;;13.50;99.90;;;;;;5031623;28;20042;-48
2023/09/30 01:30:44;;;;;;;11.32;2.92;;;13.50;99.90;;;;;;5032270;28;20041;-50
2023/09/30 01:33:11;;;;;;;14.60;3.20;;;13.50;99.90;;;;;;5031956;28;20053;-54
2023/09/30 01:35:38;;;;;;;14.02;2.90;;;13.50;99.90;;;;;;5031391;28;20480;-51
2023/09/30 01:38:04;;;;;;;17.13;2.95;;;13.50;99.90;;;;;;5033229;28;20883;-51
2023/09/30 01:40:31;;;;;;;13.60;3.05;;;13.50;99.90;;;;;;5032909;28;20072;-54
2023/09/30 01:42:58;;;;;;;15.15;3.63;;;13.40;99.90;;;;;;5031599;28;20077;-50
2023/09/30 01:45:25;;;;;;;11.75;2.28;;;13.40;99.90;;;;;;5031869;28;20119;-52
2023/09/30 01:47:51;;;;;;;13.38;3.03;;;13.40;99.90;;;;;;5031636;28;20088;-53
2023/09/30 01:50:19;;;;;;;17.02;2.88;;;13.40;99.90;;;;;;5032897;28;20069;-50
2023/09/30 01:52:46;;;;;;;14.80;3.00;;;13.30;99.90;;;;;;5032917;28;20045;-53
2023/09/30 01:55:13;;;;;;;11.73;2.97;;;13.30;99.90;;;;;;5032873;28;20466;-55
2023/09/30 01:57:41;;;;;;;15.30;2.58;;;13.20;99.90;;;;;;5032841;28;20056;-54
2023/09/30 02:00:09;;;;;;;12.52;2.80;;;13.20;99.90;;;;;;5031571;28;20041;-49
2023/09/30 02:02:41;;;;;;;9.65;2.70;;;13.30;99.90;;;;;;5031642;28;20541;-53
2023/09/30 02:05:08;;;;;;;16.35;3.42;;;13.20;99.90;;;;;;5033174;28;20044;-49
2023/09/30 02:07:35;;;;;;;13.55;2.92;;;13.20;99.90;;;;;;5031648;28;20033;-50
2023/09/30 02:10:02;;;;;;;15.23;3.03;;;13.20;99.90;;;;;;5031838;28;20037;-53
2023/09/30 02:12:29;;;;;;;10.20;2.20;;;13.20;99.90;;;;;;5032823;28;20091;-50
2023/09/30 02:14:56;;;;;;;17.00;2.83;;;13.20;99.90;;;;;;5032834;28;20046;-54
2023/09/30 02:17:23;;;;;;;14.63;2.95;;;13.20;99.90;;;;;;5031413;28;20038;-55
2023/09/30 02:19:53;;;;;;;14.07;2.70;;;13.20;99.90;;;;;;5032714;28;20049;-54
2023/09/30 02:22:20;;;;;;;17.85;2.78;;;13.20;99.90;;;;;;5032622;28;20053;-53
2023/09/30 02:24:48;;;;;;;15.30;2.60;;;13.30;99.90;;;;;;5035986;28;20033;-49
2023/09/30 02:27:15;;;;;;;16.77;2.78;;;13.20;99.90;;;;;;5036341;28;20045;-52
2023/09/30 02:29:42;;;;;;;13.63;2.55;;;13.20;99.90;;;;;;5036147;28;20393;-52
2023/09/30 02:32:09;;;;;;;8.60;2.28;;;13.20;99.90;;;;;;5036355;28;20049;-52
2023/09/30 02:34:35;;;;;;;11.00;2.78;;;13.20;99.90;;;;;;5036325;28;20080;-54
2023/09/30 02:37:02;;;;;;;12.70;2.78;;;13.20;99.90;;;;;;5036463;28;20056;-48
2023/09/30 02:39:29;;;;;;;12.93;2.80;;;13.20;99.90;;;;;;5034837;28;20373;-52
2023/09/30 02:41:56;;;;;;;11.98;2.38;;;13.20;99.90;;;;;;5035858;28;20037;-52
2023/09/30 02:44:23;;;;;;;13.77;3.30;;;13.20;99.90;;;;;;5035863;28;20046;-51
2023/09/30 02:46:50;;;;;;;9.85;2.70;;;13.10;99.90;;;;;;5034821;28;20045;-48
2023/09/30 02:49:17;;;;;;;12.50;2.70;;;13.10;99.90;;;;;;5034693;28;20432;-52
2023/09/30 02:51:44;;;;;;;13.90;2.58;;;13.10;99.90;;;;;;5035742;28;20060;-51
2023/09/30 02:54:15;;;;;;;13.25;2.85;;;13.10;99.90;;;;;;5036082;28;20128;-51
2023/09/30 02:56:42;;;;;;;13.85;2.78;;;13.10;99.90;;;;;;5035465;28;20065;-51
2023/09/30 02:59:09;;;;;;;10.57;2.63;;;13.10;99.90;;;;;;5034615;28;20037;-50
2023/09/30 03:01:37;;;;;;;16.55;3.05;;;13.10;99.90;;;;;;5034350;28;20386;-55
2023/09/30 03:04:06;;;;;;;12.45;2.85;;;13.10;99.90;;;;;;5035578;28;20041;-54
2023/09/30 03:06:38;;;;;;;11.63;2.50;;;13.00;99.90;;;;;;5034277;28;20046;-51
2023/09/30 03:09:05;;;;;;;13.35;2.75;;;13.00;99.90;;;;;;5034367;28;20049;-51
2023/09/30 03:11:33;;;;;;;14.82;2.90;;;13.00;99.90;;;;;;5035802;28;20045;-50
2023/09/30 03:13:59;;;;;;;10.88;2.15;;;13.00;99.90;;;;;;5035242;28;20053;-49
2023/09/30 03:16:26;;;;;;;14.07;3.00;;;13.00;99.90;;;;;;5035587;28;20038;-55
2023/09/30 03:18:55;;;;;;;15.90;2.88;;;13.00;99.90;;;;;;5035294;28;20116;-50
2023/09/30 03:21:22;;;;;;;17.23;3.70;;;13.00;99.90;;;;;;5035187;28;20042;-50
2023/09/30 03:23:49;;;;;;;13.57;2.70;;;13.00;99.90;;;;;;5035055;28;20373;-49
2023/09/30 03:26:16;;;;;;;12.63;2.80;;;13.00;99.90;;;;;;5034759;28;20045;-51
2023/09/30 03:28:42;;;;;;;16.20;3.80;;;12.90;99.90;;;;;;5033437;28;20042;-52
2023/09/30 03:31:10;;;;;;;17.08;2.67;;;12.90;99.90;;;;;;5035011;28;20041;-47
2023/09/30 03:33:37;;;;;;;14.30;3.20;;;12.90;99.90;;;;;;5035487;28;20052;-52
2023/09/30 03:36:04;;;;;;;13.13;3.33;;;12.90;99.90;;;;;;5033091;28;20052;-51
2023/09/30 03:38:32;;;;;;;14.40;3.20;;;12.90;99.90;;;;;;5034892;28;20037;-55
2023/09/30 03:40:59;;;;;;;16.08;3.30;;;12.80;99.90;;;;;;5034680;28;20048;-48
2023/09/30 03:43:25;;;;;;;17.65;3.10;;;12.80;99.90;;;;;;5035116;28;20033;-52
2023/09/30 03:45:53;;;;;;;16.77;2.75;;;12.70;99.90;;;;;;5035125;28;20064;-53
2023/09/30 03:48:20;;;;;;;11.50;2.65;;;12.70;99.90;;;;;;5034781;28;20463;-46
2023/09/30 03:50:48;;;;;;;11.88;2.75;;;12.60;99.90;;;;;;5034729;28;20133;-48
2023/09/30 03:53:15;;;;;;;15.00;2.92;;;12.50;99.90;;;;;;5034794;28;20049;-52
2023/09/30 03:55:42;;;;;;;12.55;2.60;;;12.50;99.90;;;;;;5034844;28;20046;-53
2023/09/30 03:58:08;;;;;;;11.48;2.47;;;12.50;99.90;;;;;;5034436;28;20049;-53
2023/09/30 04:00:35;;;;;;;12.98;2.85;;;12.40;99.90;;;;;;5034794;28;20481;-51
2023/09/30 04:03:02;;;;;;;13.85;2.42;;;12.40;99.90;;;;;;5034752;28;20041;-53
2023/09/30 04:05:31;;;;;;;11.00;2.58;;;12.40;99.90;;;;;;5034384;28;20121;-48
2023/09/30 04:07:58;;;;;;;12.80;2.40;;;12.40;99.90;;;;;;5034362;28;20053;-45
2023/09/30 04:10:25;;;;;;;12.05;2.55;;;12.30;99.90;;;;;;5034433;28;20041;-55
2023/09/30 04:12:52;;;;;;;13.50;2.58;;;12.30;99.90;;;;;;5034382;28;20061;-55
2023/09/30 04:15:19;;;;;;;12.00;2.47;;;12.30;99.90;;;;;;5034297;28;20042;-53
2023/09/30 04:17:46;;;;;;;14.07;2.75;;;12.30;99.90;;;;;;5034207;28;20065;-52
2023/09/30 04:20:16;;;;;;;14.70;2.83;;;12.20;99.90;;;;;;5033973;28;20535;-49
2023/09/30 04:22:46;;;;;;;12.20;2.65;;;12.20;99.90;;;;;;5034014;28;20392;-53
2023/09/30 04:25:12;;;;;;;12.85;3.15;;;12.20;99.90;;;;;;5034093;28;20045;-53
2023/09/30 04:27:39;;;;;;;16.08;3.08;;;12.20;99.90;;;;;;5034031;28;20038;-49
2023/09/30 04:30:08;;;;;;;15.07;3.00;;;12.20;99.90;;;;;;5033949;28;20080;-51
2023/09/30 04:32:36;;;;;;;12.77;2.60;;;12.20;99.90;;;;;;5034206;28;20100;-51
2023/09/30 04:35:04;;;;;;;11.38;2.95;;;12.20;99.90;;;;;;5034216;28;20462;-53
2023/09/30 04:37:30;;;;;;;11.75;2.63;;;12.10;99.90;;;;;;5033693;28;20124;-48
2023/09/30 04:39:58;;;;;;;12.85;3.15;;;12.20;99.90;;;;;;5033525;28;20037;-47
2023/09/30 04:42:25;;;;;;;12.77;3.00;;;12.20;99.90;;;;;;5033408;28;20049;-50
2023/09/30 04:44:52;;;;;;;12.80;2.63;;;12.20;99.90;;;;;;5033578;28;20041;-49
2023/09/30 04:47:19;;;;;;;12.00;3.55;;;12.20;99.90;;;;;;5032606;28;20037;-50
2023/09/30 04:49:45;;;;;;;13.57;2.85;;;12.30;99.90;;;;;;5033592;28;20057;-51
2023/09/30 04:52:12;;;;;;;11.88;2.80;;;12.30;99.90;;;;;;5033198;28;20060;-53
2023/09/30 04:54:39;;;;;;;12.27;2.58;;;12.30;99.90;;;;;;5033856;28;20107;-55
2023/09/30 04:57:06;;;;;;;14.10;3.15;;;12.40;99.90;;;;;;5033431;28;20053;-55
2023/09/30 04:59:34;;;;;;;15.30;2.97;;;12.40;99.90;;;;;;5033951;28;20049;-52
2023/09/30 05:02:00;;;;;;;15.05;3.00;;;12.40;99.90;;;;;;5033570;28;20393;-50
2023/09/30 05:04:29;;;;;;;10.80;2.88;;;12.40;99.90;;;;;;5033677;28;20037;-50
2023/09/30 05:06:56;;;;;;;13.65;2.80;;;12.40;99.90;;;;;;5033411;28;20096;-55
2023/09/30 05:09:23;;;;;;;11.48;2.95;;;12.50;99.90;;;;;;5033645;28;20033;-52
2023/09/30 05:11:50;;;;;;;13.23;2.75;;;12.50;99.90;;;;;;5033253;28;20040;-49
2023/09/30 05:14:17;;;;;;;12.45;2.95;;;12.50;99.90;;;;;;5033689;28;20045;-50
2023/09/30 05:16:43;;;;;;;15.00;2.90;;;12.40;99.90;;;;;;5033050;28;20120;-51
2023/09/30 05:19:10;;;;;;;11.43;2.50;;;12.40;99.90;;;;;;5033478;28;20457;-51
2023/09/30 05:21:37;;;;;;;12.50;2.67;;;12.40;99.90;;;;;;5033471;28;20458;-51
2023/09/30 05:24:05;;;;;;;16.10;3.08;;;12.50;99.90;;;;;;5033588;28;20076;-46
2023/09/30 05:26:32;;;;;;;10.82;2.78;;;12.40;99.90;;;;;;5033167;28;20338;-51
2023/09/30 05:28:59;;;;;;;11.57;2.83;;;12.50;99.90;;;;;;5033285;28;20037;-48
2023/09/30 05:31:26;;;;;;;10.07;2.45;;;12.50;99.90;;;;;;5033057;28;20053;-49
2023/09/30 05:33:56;;;;;;;11.35;3.38;;;12.40;99.90;;;;;;5033272;28;20096;-50
2023/09/30 05:36:24;;;;;;;12.18;2.88;;;12.40;99.90;;;;;;5033056;28;20041;-52
2023/09/30 05:38:51;;;;;;;11.50;3.03;;;12.40;99.90;;;;;;5033128;28;20049;-52
2023/09/30 05:41:20;;;;;;;15.27;2.83;;;12.40;99.90;;;;;;5032893;28;20477;-51
2023/09/30 05:43:47;;;;;;;10.77;2.67;;;12.40;99.90;;;;;;5033209;28;20072;-52
2023/09/30 05:46:14;;;;;;;14.32;3.10;;;12.40;99.90;;;;;;5032876;28;20044;-49
2023/09/30 05:48:41;;;;;;;14.30;3.22;;;12.40;99.90;;;;;;5033252;28;20405;-51
2023/09/30 05:51:07;;;;;;;14.18;2.88;;;12.40;99.90;;;;;;5032751;28;20492;-53
2023/09/30 05:53:36;;;;;;;12.88;3.03;;;12.40;99.90;;;;;;5033256;28;20612;-47
2023/09/30 05:56:03;;;;;;;14.82;2.80;;;12.40;99.90;;;;;;5033108;28;20049;-46
2023/09/30 05:58:31;;;;;;;14.25;2.95;;;12.40;99.90;;;;;;5033735;28;20469;-50
2023/09/30 06:01:00;;;;;;;14.48;2.88;;;12.40;99.90;;;;;;5036787;28;20116;-49
2023/09/30 06:03:29;;;;;;;10.38;2.95;;;12.40;99.90;;;;;;5036931;28;20049;-52
2023/09/30 06:05:56;;;;;;;9.68;2.75;;;12.40;99.90;;;;;;5036476;28;20124;-48
2023/09/30 06:08:23;;;;;;;15.13;3.17;;;12.40;99.90;;;;;;5036684;28;20049;-53
2023/09/30 06:10:50;;;;;;;15.27;3.17;;;12.40;99.90;;;;;;5036844;28;20045;-53
2023/09/30 06:13:17;;;;;;;13.65;2.40;;;12.40;99.90;;;;;;5036632;28;20041;-52
2023/09/30 06:15:44;;;;;;;10.73;2.55;;;12.40;99.90;;;;;;5035614;28;20394;-56
2023/09/30 06:18:13;;;;;;;12.10;2.67;;;12.40;99.90;;;;;;5036352;28;20050;-54
2023/09/30 06:20:41;;;;;;;14.48;2.95;;;12.40;99.90;;;;;;5036445;28;20435;-53
2023/09/30 06:23:09;;;;;;;10.70;3.03;;;12.40;99.90;;;;;;5036246;28;20037;-49
2023/09/30 06:25:37;;;;;;;12.85;2.58;;;12.40;99.90;;;;;;5036206;28;20049;-46
2023/09/30 06:28:04;;;;;;;11.80;2.47;;;12.50;99.90;;;;;;5035123;28;20045;-48
2023/09/30 06:30:33;;;;;;;14.38;3.58;;;12.40;99.90;;;;;;5036093;28;20050;-51
2023/09/30 06:33:00;;;;;;;12.32;2.78;;;12.40;99.90;;;;;;5036160;28;20048;-50
2023/09/30 06:35:28;;;;;;;15.88;2.92;;;12.40;99.90;;;;;;5035937;28;20085;-50
2023/09/30 06:37:54;;;;;;;12.45;3.10;;;12.50;99.90;;;;;;5036029;28;20045;-49
2023/09/30 06:40:22;;;;;;;13.00;2.70;;;12.50;99.90;;;;;;5035773;28;20041;-49
2023/09/30 06:42:48;;;;;;;11.35;3.05;;;12.50;99.90;;;;;;5036003;28;20392;-46
2023/09/30 06:45:15;;;;;;;13.48;3.22;;;12.60;99.90;;;;;;5034728;28;20062;-52
2023/09/30 06:47:42;;;;;;;14.20;3.03;;;12.60;99.90;;;;;;5035789;28;20036;-49
2023/09/30 06:50:09;;;;;;;14.50;4.22;;;12.60;99.90;;;;;;5035707;28;20048;-51
2023/09/30 06:52:36;;;;;;;13.88;3.50;;;12.60;99.90;;;;;;5036335;28;20136;-49
2023/09/30 06:55:06;;;;;;;18.05;3.58;;;12.60;99.90;;;;;;5036189;28;20426;-55
2023/09/30 06:57:32;;;;;;;14.82;3.00;;;12.70;99.90;;;;;;5035589;28;20060;-48
2023/09/30 06:59:59;;;;;;;12.52;2.67;;;12.70;99.90;;;;;;5034328;28;20053;-51
2023/09/30 07:02:26;;;;;;;14.35;3.97;;;12.60;99.90;;;;;;5035619;28;20047;-52
2023/09/30 07:04:53;;;;;;;15.82;3.08;;;12.60;99.90;;;;;;5035616;28;20362;-52
2023/09/30 07:07:20;;;;;;;12.57;3.45;;;12.70;99.90;;;;;;5035123;28;20041;-49
2023/09/30 07:09:47;;;;;;;14.63;3.35;;;12.70;99.90;;;;;;5034486;28;20037;-49
2023/09/30 07:12:13;;;;;;;12.45;3.10;;;12.70;99.90;;;;;;5035309;28;20076;-50
2023/09/30 07:14:40;;;;;;;11.63;2.92;;;12.60;99.90;;;;;;5035586;28;20072;-53
2023/09/30 07:17:07;;;;;;;16.50;3.45;;;12.70;99.90;;;;;;5035388;28;20064;-53
2023/09/30 07:19:34;;;;;;;14.18;3.33;;;12.70;99.90;;;;;;5035637;28;20041;-50
2023/09/30 07:22:02;;;;;;;11.45;2.60;;;12.70;99.90;;;;;;5035568;28;20041;-53
2023/09/30 07:24:31;;;;;;;14.23;3.10;;;12.70;99.90;;;;;;5035364;28;20044;-52
2023/09/30 07:26:58;;;;;;;18.48;3.55;;;12.70;99.90;;;;;;5035213;28;20087;-50
2023/09/30 07:29:26;;;;;;;13.45;2.85;;;12.70;99.90;;;;;;5035447;28;20451;-54
2023/09/30 07:31:53;;;;;;;12.98;3.00;;;12.80;99.90;;;;;;5035191;28;20037;-53
2023/09/30 07:34:20;;;;;;;9.07;2.90;;;12.80;99.90;;;;;;5033961;28;20401;-54
2023/09/30 07:36:47;;;;;;;13.18;3.63;;;12.80;99.90;;;;;;5035138;28;20041;-52
2023/09/30 07:39:13;;;;;;;14.07;3.50;;;12.90;99.90;;;;;;5035008;28;20045;-53
2023/09/30 07:41:40;;;;;;;16.80;4.43;;;12.90;99.90;;;;;;5034556;28;20037;-48
2023/09/30 07:44:09;;;;;;;10.93;2.58;;;13.00;99.90;;;;;;5034915;28;20072;-53
2023/09/30 07:46:35;;;;;;;11.00;3.15;;;13.00;99.90;;;;;;5035030;28;20086;-51
2023/09/30 07:49:03;;;;;;;18.08;3.38;;;13.10;99.90;;;;;;5034638;28;20095;-50
2023/09/30 07:51:30;;;;;;;18.08;2.92;;;13.10;99.90;;;;;;5034264;28;20499;-51
2023/09/30 07:53:57;;;;;;;17.23;3.35;;;13.20;99.90;;;;;;5034686;28;20073;-51
2023/09/30 07:56:40;;;;;;;14.32;3.60;;;13.20;99.90;;;;;;5034565;28;20050;-49
2023/09/30 07:59:07;;;;;;;13.63;3.10;;;13.20;99.90;;;;;;5034196;28;20519;-51
2023/09/30 08:01:33;;;;;;;14.77;3.13;;;13.30;99.90;;;;;;5034080;28;20136;-46
2023/09/30 08:04:01;;;;;;;13.77;2.95;;;13.40;99.90;;;;;;5034571;28;20141;-51
2023/09/30 08:06:28;;;;;;;14.52;3.33;;;13.40;99.90;;;;;;5034169;28;20048;-49
2023/09/30 08:08:55;;;;;;;16.42;2.97;;;13.40;99.90;;;;;;5033962;28;20071;-49
2023/09/30 08:11:23;;;;;;;14.98;2.65;;;13.50;99.90;;;;;;5037836;28;20073;-49
2023/09/30 08:13:49;;;;;;;11.48;2.63;;;13.50;99.90;;;;;;5034179;28;20412;-48
2023/09/30 08:16:16;;;;;;;11.18;3.10;;;13.60;99.90;;;;;;5034275;28;20149;-53
2023/09/30 08:18:47;;;;;;;15.88;2.90;;;13.60;99.90;;;;;;5033841;28;20045;-53
2023/09/30 08:21:14;;;;;;;15.45;2.55;;;13.70;99.90;;;;;;5033722;28;20414;-53
2023/09/30 08:23:41;;;;;;;16.70;3.40;;;13.70;99.90;;;;;;5033646;28;20099;-50
2023/09/30 08:26:07;;;;;;;15.45;2.92;;;13.80;99.90;;;;;;5023903;28;20057;-52
2023/09/30 08:28:35;;;;;;;15.80;3.33;;;13.90;99.90;;;;;;5018559;28;20038;-52
2023/09/30 08:31:01;;;;;;;12.10;3.22;;;13.90;99.90;;;;;;5014596;28;20046;-49
2023/09/30 08:33:30;;;;;;;15.85;2.85;;;14.00;99.90;;;;;;5014622;28;20096;-48
2023/09/30 08:35:58;;;;;;;13.52;3.13;;;14.00;99.90;;;;;;5014003;28;20042;-53
2023/09/30 08:38:26;;;;;;;18.33;2.55;;;14.00;99.90;;;;;;5014138;28;20042;-52
2023/09/30 08:40:53;;;;;;;12.32;2.63;;;14.10;99.90;;;;;;5013919;28;20037;-49
2023/09/30 08:43:19;;;;;;;12.02;2.97;;;14.20;99.90;;;;;;5014149;28;20544;-52
2023/09/30 08:45:46;;;;;;;15.55;3.35;;;14.20;99.90;;;;;;5013971;28;20050;-49
2023/09/30 08:48:16;;;;;;;12.93;3.30;;;14.40;99.90;;;;;;5014108;28;20049;-47
2023/09/30 08:50:44;;;;;;;16.70;3.30;;;14.40;99.90;;;;;;5013544;28;20100;-50
2023/09/30 08:53:11;;;;;;;12.48;3.05;;;14.40;99.90;;;;;;5013804;28;20346;-49
2023/09/30 08:55:38;;;;;;;14.30;2.65;;;14.40;99.90;;;;;;5014050;28;20385;-52
2023/09/30 08:58:05;;;;;;;17.40;3.10;;;14.50;99.90;;;;;;5013869;28;20045;-48
2023/09/30 09:00:32;;;;;;;16.45;3.78;;;14.50;99.90;;;;;;5013617;28;20045;-47
2023/09/30 09:02:59;;;;;;;15.35;3.17;;;14.60;99.90;;;;;;5013802;28;20401;-49
2023/09/30 09:05:25;;;;;;;12.13;2.90;;;14.70;99.90;;;;;;5013700;28;20069;-45
2023/09/30 09:07:52;;;;;;;14.48;3.45;;;14.80;99.90;;;;;;5024096;28;20050;-49
2023/09/30 09:10:19;;;;;;;15.77;3.35;;;14.80;99.90;;;;;;5031589;28;20065;-48
2023/09/30 09:12:47;;;;;;;11.95;2.70;;;14.90;99.90;;;;;;5033566;28;20398;-47
2023/09/30 09:15:14;;;;;;;13.77;3.20;;;15.00;99.90;;;;;;5033804;28;20045;-47
2023/09/30 09:17:44;;;;;;;10.98;2.70;;;15.20;99.90;;;;;;5033769;28;20037;-51
2023/09/30 09:20:12;;;;;;;13.48;2.78;;;15.30;99.90;;;;;;5032816;28;20045;-51
2023/09/30 09:22:39;;;;;;;12.75;2.45;;;15.40;99.90;;;;;;5032124;28;20372;-50
2023/09/30 09:25:06;;;;;;;13.02;2.60;;;15.50;99.90;;;;;;5032474;28;20124;-51
2023/09/30 09:27:33;;;;;;;13.52;2.63;;;15.50;99.90;;;;;;5033127;28;20044;-50
2023/09/30 09:30:00;;;;;;;12.23;2.38;;;15.60;99.90;;;;;;5033392;28;20040;-47
2023/09/30 09:32:27;;;;;;;9.32;2.25;;;15.60;99.90;;;;;;5032761;28;20041;-49
2023/09/30 09:34:53;;;;;;;10.77;2.42;;;15.80;99.90;;;;;;5035188;28;20057;-50
2023/09/30 09:37:22;;;;;;;10.18;2.58;;;15.90;99.90;;;;;;5035919;28;20107;-52
2023/09/30 09:39:49;;;;;;;7.38;2.08;;;16.00;99.90;;;;;;5035819;28;20042;-52
2023/09/30 09:42:15;;;;;;;11.60;2.20;;;16.10;99.90;;;;;;5035715;28;20042;-52
2023/09/30 09:44:42;;;;;;;9.35;2.63;;;16.20;99.90;;;;;;5035554;28;20033;-50
2023/09/30 09:47:09;;;;;;;9.52;2.13;;;16.40;99.90;;;;;;5035638;28;20107;-51
2023/09/30 09:49:36;;;;;;;8.05;1.77;;;16.50;99.90;;;;;;5037170;28;20033;-53
2023/09/30 09:52:03;;;;;;;9.75;2.15;;;16.50;99.90;;;;;;5036915;28;20054;-49
2023/09/30 09:54:30;;;;;;;8.05;2.17;;;16.50;99.90;;;;;;5035527;28;20124;-49
2023/09/30 09:56:57;;;;;;;7.43;2.30;;;16.50;99.90;;;;;;5036854;28;20146;-48
2023/09/30 09:59:24;;;;;;;6.15;2.05;;;16.60;99.90;;;;;;5037005;28;20084;-52
2023/09/30 10:01:51;;;;;;;7.72;2.22;;;16.70;99.90;;;;;;5036420;28;20048;-49
2023/09/30 10:04:17;;;;;;;8.20;1.70;;;16.80;99.90;;;;;;5036758;28;20103;-51
2023/09/30 10:06:44;;;;;;;7.18;1.65;;;16.80;99.90;;;;;;5036479;28;20042;-51
2023/09/30 10:09:11;;;;;;;12.20;2.17;;;16.80;99.90;;;;;;5036640;28;20459;-47
2023/09/30 10:11:38;;;;;;;8.90;2.33;;;16.90;99.90;;;;;;5036854;28;20054;-51
2023/09/30 10:14:07;;;;;;;6.45;1.92;;;16.90;99.90;;;;;;5036322;28;20049;-51
2023/09/30 10:16:33;;;;;;;6.20;1.73;;;17.10;99.90;;;;;;5036918;28;20480;-49
2023/09/30 10:19:00;;;;;;;9.07;2.55;;;17.20;99.90;;;;;;5036385;28;20049;-47
2023/09/30 10:21:27;;;;;;;8.32;2.50;;;17.20;99.90;;;;;;5036276;28;20038;-48
2023/09/30 10:23:54;;;;;;;7.85;1.90;;;17.20;99.90;;;;;;5036393;28;20043;-50
2023/09/30 10:26:20;;;;;;;8.45;1.77;;;17.20;99.90;;;;;;5036366;28;20091;-49
2023/09/30 10:28:50;;;;;;;8.27;2.45;;;17.20;99.90;;;;;;5036626;28;20041;-52
2023/09/30 10:31:21;;;;;;;7.47;2.03;;;17.10;99.90;;;;;;5036281;28;20056;-46
2023/09/30 10:33:48;;;;;;;8.32;2.03;;;17.20;99.90;;;;;;5036640;28;20045;-53
2023/09/30 10:36:15;;;;;;;7.45;2.13;;;17.40;99.90;;;;;;5036004;28;20473;-51
2023/09/30 10:38:42;;;;;;;8.77;1.90;;;17.50;99.90;;;;;;5035797;28;20076;-47
2023/09/30 10:41:09;;;;;;;6.57;1.63;;;17.60;99.90;;;;;;5035636;28;20048;-49
2023/09/30 10:43:36;;;;;;;9.00;2.30;;;17.80;99.90;;;;;;5035085;28;20124;-49
2023/09/30 10:46:05;;;;;;;7.30;1.60;;;17.90;99.90;;;;;;5035203;28;20037;-49
2023/09/30 10:48:33;;;;;;;7.88;1.50;;;18.10;99.90;;;;;;5037512;28;20056;-54
2023/09/30 10:51:00;;;;;;;8.43;1.80;;;18.20;99.90;;;;;;5039406;28;20128;-52
2023/09/30 10:53:28;;;;;;;7.93;1.67;;;18.30;99.50;;;;;;5034306;28;20425;-48
2023/09/30 10:55:56;;;;;;;9.27;1.60;;;18.30;99.40;;;;;;5034607;28;20049;-52
2023/09/30 10:58:23;;;;;;;6.28;1.67;;;18.40;99.60;;;;;;5035474;28;20041;-54
2023/09/30 11:00:49;;;;;;;14.63;2.60;;;18.40;99.10;;;;;;5034310;28;20099;-52
2023/09/30 11:03:16;;;;;;;8.05;2.00;;;18.50;99.70;;;;;;5035245;28;20034;-50
2023/09/30 11:05:43;;;;;;;8.18;2.03;;;18.50;99.70;;;;;;5035264;28;20522;-49
2023/09/30 11:08:30;;;;;;;10.98;1.70;;;18.70;99.70;;;;;;5034222;28;20484;-51
2023/09/30 11:10:57;;;;;;;7.95;2.03;;;18.80;99.50;;;;;;5035064;28;20046;-53
2023/09/30 11:13:24;;;;;;;7.03;1.92;;;18.90;99.30;;;;;;5034921;28;20033;-51
2023/09/30 11:15:51;;;;;;;7.53;1.58;;;18.90;99.40;;;;;;5035061;28;20041;-51
2023/09/30 11:18:18;;;;;;;6.38;1.58;;;18.90;99.00;;;;;;5034768;28;20042;-54
2023/09/30 11:20:45;;;;;;;5.90;1.65;;;18.90;98.60;;;;;;5034864;28;20044;-48
2023/09/30 11:23:12;;;;;;;8.10;2.10;;;18.90;98.50;;;;;;5034157;28;20038;-52
2023/09/30 11:25:39;;;;;;;10.93;1.90;;;18.90;99.40;;;;;;5017241;28;20056;-54
2023/09/30 11:28:06;;;;;;;6.00;1.80;;;18.90;98.90;;;;;;5034469;28;20060;-52
2023/09/30 11:30:35;;;;;;;8.45;2.28;;;19.00;98.40;;;;;;5031060;28;20034;-48
2023/09/30 11:33:02;;;;;;;9.10;1.90;;;19.00;98.50;;;;;;5034447;28;20091;-49
2023/09/30 11:35:29;;;;;;;10.15;1.95;;;19.00;99.20;;;;;;5034629;28;20115;-51
2023/09/30 11:37:56;;;;;;;7.30;1.63;;;19.00;98.90;;;;;;5034293;28;20087;-48
2023/09/30 11:40:23;;;;;;;6.97;1.50;;;19.00;98.40;;;;;;5034339;28;20049;-54
2023/09/30 11:42:50;;;;;;;10.80;2.38;;;18.90;99.00;;;;;;5034545;28;20049;-54
2023/09/30 11:45:16;;;;;;;9.98;1.90;;;18.90;99.10;;;;;;5034397;28;20120;-51
2023/09/30 11:47:44;;;;;;;10.93;2.35;;;18.90;99.10;;;;;;5034411;28;20077;-51
2023/09/30 11:50:12;;;;;;;8.68;1.88;;;18.90;99.50;;;;;;5036289;28;20477;-49
2023/09/30 11:52:41;;;;;;;20.20;2.90;;;18.90;99.80;;;;;;5034416;28;20047;-52
2023/09/30 11:55:08;;;;;;;10.25;2.28;;;18.90;99.70;;;;;;5034475;28;20048;-49
2023/09/30 11:57:35;;;;;;;8.27;1.98;;;18.90;99.90;;;;;;5033554;28;20037;-50
2023/09/30 12:00:02;;;;;;;8.43;2.35;;;18.90;99.50;;;;;;5034314;28;20400;-52
2023/09/30 12:02:30;;;;;;;8.15;1.90;;;18.90;99.90;;;;;;5034104;28;20120;-52
2023/09/30 12:04:57;;;;;;;7.28;1.90;;;19.10;99.90;;;;;;5034607;28;20033;-49
2023/09/30 12:07:24;;;;;;;7.95;2.30;;;19.10;99.10;;;;;;5034219;28;20033;-53
2023/09/30 12:09:51;;;;;;;7.65;2.00;;;19.20;98.80;;;;;;5033942;28;20493;-50
2023/09/30 12:12:18;;;;;;;10.10;1.92;;;19.20;98.10;;;;;;5034118;28;20124;-51
2023/09/30 12:14:45;;;;;;;11.75;2.17;;;19.20;98.70;;;;;;5034019;28;20041;-53
2023/09/30 12:17:14;;;;;;;8.73;2.20;;;19.40;98.60;;;;;;5033829;28;20484;-52
2023/09/30 12:19:41;;;;;;;7.40;1.73;;;19.40;98.50;;;;;;5033894;28;20065;-48
2023/09/30 12:22:10;;;;;;;8.45;1.90;;;19.40;98.10;;;;;;5032266;28;20187;-48
2023/09/30 12:24:37;;;;;;;8.98;2.13;;;19.50;98.40;;;;;;5033881;28;20443;-50
2023/09/30 12:27:04;;;;;;;8.25;2.10;;;19.60;98.20;;;;;;5032726;28;20041;-47
2023/09/30 12:29:31;;;;;;;7.00;1.75;;;19.60;98.00;;;;;;5034552;28;20373;-49
2023/09/30 12:31:58;;;;;;;7.57;1.80;;;19.60;97.90;;;;;;5034035;28;20397;-53
2023/09/30 12:34:25;;;;;;;6.75;1.92;;;19.60;98.00;;;;;;5033504;28;20037;-46
2023/09/30 12:36:53;;;;;;;6.78;1.98;;;19.70;98.00;;;;;;5033468;28;20051;-54
2023/09/30 12:39:23;;;;;;;13.55;2.25;;;19.70;97.80;;;;;;5033197;28;20046;-48